sensor_id;sensor_type;location;lat;lon;timestamp;P1;durP1;ratioP1;P2;durP2;ratioP2
37305;SDS011;23193;42.656;21.170;2023-04-10T00:00:43;29.00;;;17.77;;
37305;SDS011;23193;42.656;21.170;2023-04-10T00:03:11;28.70;;;16.85;;
37305;SDS011;23193;42.656;21.170;2023-04-10T00:05:40;26.35;;;18.08;;
37305;SDS011;23193;42.656;21.170;2023-04-10T00:08:06;29.55;;;18.15;;
37305;SDS011;23193;42.656;21.170;2023-04-10T00:10:32;29.83;;;18.85;;
37305;SDS011;23193;42.656;21.170;2023-04-10T00:12:58;28.80;;;19.08;;
37305;SDS011;23193;42.656;21.170;2023-04-10T00:15:24;30.67;;;19.55;;
37305;SDS011;23193;42.656;21.170;2023-04-10T00:17:51;28.95;;;17.67;;
37305;SDS011;23193;42.656;21.170;2023-04-10T00:20:19;30.63;;;19.60;;
37305;SDS011;23193;42.656;21.170;2023-04-10T00:22:46;33.10;;;18.83;;
37305;SDS011;23193;42.656;21.170;2023-04-10T00:25:12;29.13;;;19.02;;
37305;SDS011;23193;42.656;21.170;2023-04-10T00:27:38;30.55;;;19.48;;
37305;SDS011;23193;42.656;21.170;2023-04-10T00:30:05;32.20;;;20.05;;
37305;SDS011;23193;42.656;21.170;2023-04-10T00:32:31;29.40;;;18.67;;
37305;SDS011;23193;42.656;21.170;2023-04-10T00:34:57;29.55;;;19.45;;
37305;SDS011;23193;42.656;21.170;2023-04-10T00:37:24;28.38;;;18.33;;
37305;SDS011;23193;42.656;21.170;2023-04-10T00:39:50;31.65;;;19.35;;
37305;SDS011;23193;42.656;21.170;2023-04-10T00:42:16;30.48;;;20.33;;
37305;SDS011;23193;42.656;21.170;2023-04-10T00:44:42;32.17;;;20.10;;
37305;SDS011;23193;42.656;21.170;2023-04-10T00:47:08;31.05;;;19.15;;
37305;SDS011;23193;42.656;21.170;2023-04-10T00:49:34;30.10;;;19.65;;
37305;SDS011;23193;42.656;21.170;2023-04-10T00:52:01;27.73;;;18.55;;
37305;SDS011;23193;42.656;21.170;2023-04-10T00:54:27;35.35;;;20.60;;
37305;SDS011;23193;42.656;21.170;2023-04-10T00:56:53;29.23;;;18.65;;
37305;SDS011;23193;42.656;21.170;2023-04-10T00:59:21;29.65;;;18.88;;
37305;SDS011;23193;42.656;21.170;2023-04-10T01:01:47;32.08;;;19.08;;
37305;SDS011;23193;42.656;21.170;2023-04-10T01:04:13;32.92;;;19.80;;
37305;SDS011;23193;42.656;21.170;2023-04-10T01:06:48;41.83;;;24.23;;
37305;SDS011;23193;42.656;21.170;2023-04-10T01:17:04;32.88;;;20.83;;
37305;SDS011;23193;42.656;21.170;2023-04-10T01:20:15;41.13;;;22.02;;
37305;SDS011;23193;42.656;21.170;2023-04-10T01:22:25;31.92;;;19.73;;
37305;SDS011;23193;42.656;21.170;2023-04-10T01:29:51;28.00;;;18.90;;
37305;SDS011;23193;42.656;21.170;2023-04-10T01:32:18;27.58;;;18.05;;
37305;SDS011;23193;42.656;21.170;2023-04-10T01:34:50;32.03;;;18.02;;
37305;SDS011;23193;42.656;21.170;2023-04-10T01:39:42;33.75;;;21.10;;
37305;SDS011;23193;42.656;21.170;2023-04-10T01:42:10;30.60;;;21.13;;
37305;SDS011;23193;42.656;21.170;2023-04-10T01:44:40;29.20;;;20.30;;
37305;SDS011;23193;42.656;21.170;2023-04-10T01:47:07;29.83;;;20.02;;
37305;SDS011;23193;42.656;21.170;2023-04-10T01:49:39;35.00;;;21.70;;
37305;SDS011;23193;42.656;21.170;2023-04-10T01:52:08;33.67;;;21.48;;
37305;SDS011;23193;42.656;21.170;2023-04-10T01:54:35;36.58;;;22.75;;
37305;SDS011;23193;42.656;21.170;2023-04-10T01:57:02;34.67;;;22.40;;
37305;SDS011;23193;42.656;21.170;2023-04-10T01:59:29;38.22;;;23.73;;
37305;SDS011;23193;42.656;21.170;2023-04-10T02:01:59;36.20;;;23.00;;
37305;SDS011;23193;42.656;21.170;2023-04-10T02:04:26;32.93;;;20.97;;
37305;SDS011;23193;42.656;21.170;2023-04-10T02:06:58;33.42;;;21.67;;
37305;SDS011;23193;42.656;21.170;2023-04-10T02:12:12;30.73;;;20.45;;
37305;SDS011;23193;42.656;21.170;2023-04-10T02:14:43;30.38;;;19.55;;
37305;SDS011;23193;42.656;21.170;2023-04-10T02:17:10;28.52;;;19.50;;
37305;SDS011;23193;42.656;21.170;2023-04-10T02:19:39;36.58;;;21.92;;
37305;SDS011;23193;42.656;21.170;2023-04-10T02:22:06;35.20;;;20.90;;
37305;SDS011;23193;42.656;21.170;2023-04-10T02:24:33;30.35;;;20.27;;
37305;SDS011;23193;42.656;21.170;2023-04-10T02:26:59;31.30;;;18.65;;
37305;SDS011;23193;42.656;21.170;2023-04-10T02:29:25;27.50;;;17.63;;
37305;SDS011;23193;42.656;21.170;2023-04-10T02:31:51;29.50;;;19.40;;
37305;SDS011;23193;42.656;21.170;2023-04-10T02:34:17;26.98;;;18.30;;
37305;SDS011;23193;42.656;21.170;2023-04-10T02:36:43;27.90;;;20.08;;
37305;SDS011;23193;42.656;21.170;2023-04-10T02:39:09;28.33;;;19.13;;
37305;SDS011;23193;42.656;21.170;2023-04-10T02:41:36;27.88;;;18.85;;
37305;SDS011;23193;42.656;21.170;2023-04-10T02:44:02;27.83;;;18.63;;
37305;SDS011;23193;42.656;21.170;2023-04-10T02:46:28;30.80;;;20.30;;
37305;SDS011;23193;42.656;21.170;2023-04-10T02:48:54;30.65;;;20.08;;
37305;SDS011;23193;42.656;21.170;2023-04-10T02:51:20;29.13;;;18.58;;
37305;SDS011;23193;42.656;21.170;2023-04-10T02:53:47;31.17;;;18.85;;
37305;SDS011;23193;42.656;21.170;2023-04-10T02:56:13;30.73;;;19.75;;
37305;SDS011;23193;42.656;21.170;2023-04-10T02:58:39;29.95;;;19.58;;
37305;SDS011;23193;42.656;21.170;2023-04-10T03:01:09;29.70;;;19.75;;
37305;SDS011;23193;42.656;21.170;2023-04-10T03:03:35;32.85;;;20.33;;
37305;SDS011;23193;42.656;21.170;2023-04-10T03:06:01;30.77;;;20.45;;
37305;SDS011;23193;42.656;21.170;2023-04-10T03:08:27;30.83;;;20.58;;
37305;SDS011;23193;42.656;21.170;2023-04-10T03:10:54;32.28;;;20.60;;
37305;SDS011;23193;42.656;21.170;2023-04-10T03:13:20;28.73;;;19.67;;
37305;SDS011;23193;42.656;21.170;2023-04-10T03:15:47;25.67;;;18.13;;
37305;SDS011;23193;42.656;21.170;2023-04-10T03:18:13;29.10;;;19.63;;
37305;SDS011;23193;42.656;21.170;2023-04-10T03:20:39;30.63;;;19.90;;
37305;SDS011;23193;42.656;21.170;2023-04-10T03:23:05;29.13;;;18.98;;
37305;SDS011;23193;42.656;21.170;2023-04-10T03:25:35;31.20;;;20.25;;
37305;SDS011;23193;42.656;21.170;2023-04-10T03:28:01;25.77;;;14.68;;
37305;SDS011;23193;42.656;21.170;2023-04-10T03:30:27;21.30;;;15.02;;
37305;SDS011;23193;42.656;21.170;2023-04-10T03:32:53;24.02;;;14.25;;
37305;SDS011;23193;42.656;21.170;2023-04-10T03:35:19;25.50;;;15.45;;
37305;SDS011;23193;42.656;21.170;2023-04-10T03:37:45;21.80;;;13.93;;
37305;SDS011;23193;42.656;21.170;2023-04-10T03:40:12;23.67;;;14.90;;
37305;SDS011;23193;42.656;21.170;2023-04-10T03:42:38;20.83;;;13.80;;
37305;SDS011;23193;42.656;21.170;2023-04-10T03:45:04;19.65;;;13.25;;
37305;SDS011;23193;42.656;21.170;2023-04-10T03:47:31;24.15;;;13.30;;
37305;SDS011;23193;42.656;21.170;2023-04-10T03:49:57;21.25;;;13.25;;
37305;SDS011;23193;42.656;21.170;2023-04-10T03:52:23;19.58;;;13.35;;
37305;SDS011;23193;42.656;21.170;2023-04-10T03:54:50;23.02;;;14.85;;
37305;SDS011;23193;42.656;21.170;2023-04-10T03:57:16;21.38;;;14.48;;
37305;SDS011;23193;42.656;21.170;2023-04-10T03:59:44;19.45;;;13.95;;
37305;SDS011;23193;42.656;21.170;2023-04-10T04:02:10;17.90;;;13.32;;
37305;SDS011;23193;42.656;21.170;2023-04-10T04:04:37;20.05;;;13.85;;
37305;SDS011;23193;42.656;21.170;2023-04-10T04:07:03;20.35;;;12.20;;
37305;SDS011;23193;42.656;21.170;2023-04-10T04:09:29;20.98;;;14.38;;
37305;SDS011;23193;42.656;21.170;2023-04-10T04:11:55;17.75;;;12.77;;
37305;SDS011;23193;42.656;21.170;2023-04-10T04:14:22;19.45;;;13.55;;
37305;SDS011;23193;42.656;21.170;2023-04-10T04:16:48;21.30;;;13.75;;
37305;SDS011;23193;42.656;21.170;2023-04-10T04:19:14;19.13;;;13.77;;
37305;SDS011;23193;42.656;21.170;2023-04-10T04:21:41;18.23;;;13.60;;
37305;SDS011;23193;42.656;21.170;2023-04-10T04:24:07;17.27;;;13.07;;
37305;SDS011;23193;42.656;21.170;2023-04-10T04:26:33;21.48;;;13.63;;
37305;SDS011;23193;42.656;21.170;2023-04-10T04:29:00;19.88;;;13.50;;
37305;SDS011;23193;42.656;21.170;2023-04-10T04:31:26;22.42;;;12.73;;
37305;SDS011;23193;42.656;21.170;2023-04-10T04:33:56;17.98;;;12.25;;
37305;SDS011;23193;42.656;21.170;2023-04-10T04:36:22;17.58;;;12.73;;
37305;SDS011;23193;42.656;21.170;2023-04-10T04:38:48;21.13;;;13.65;;
37305;SDS011;23193;42.656;21.170;2023-04-10T04:41:15;19.08;;;12.88;;
37305;SDS011;23193;42.656;21.170;2023-04-10T04:43:41;18.13;;;13.48;;
37305;SDS011;23193;42.656;21.170;2023-04-10T04:46:07;15.63;;;11.18;;
37305;SDS011;23193;42.656;21.170;2023-04-10T04:48:34;17.80;;;13.00;;
37305;SDS011;23193;42.656;21.170;2023-04-10T04:51:00;18.90;;;12.57;;
37305;SDS011;23193;42.656;21.170;2023-04-10T04:53:26;19.40;;;13.05;;
37305;SDS011;23193;42.656;21.170;2023-04-10T04:55:52;24.58;;;15.80;;
37305;SDS011;23193;42.656;21.170;2023-04-10T04:58:18;42.95;;;21.58;;
37305;SDS011;23193;42.656;21.170;2023-04-10T05:00:45;35.13;;;20.77;;
37305;SDS011;23193;42.656;21.170;2023-04-10T05:03:11;29.75;;;18.08;;
37305;SDS011;23193;42.656;21.170;2023-04-10T05:05:37;29.75;;;18.08;;
37305;SDS011;23193;42.656;21.170;2023-04-10T05:08:04;36.63;;;22.88;;
37305;SDS011;23193;42.656;21.170;2023-04-10T05:10:30;35.45;;;21.70;;
37305;SDS011;23193;42.656;21.170;2023-04-10T05:12:56;24.98;;;16.60;;
37305;SDS011;23193;42.656;21.170;2023-04-10T05:15:22;25.63;;;17.20;;
37305;SDS011;23193;42.656;21.170;2023-04-10T05:17:48;22.50;;;16.13;;
37305;SDS011;23193;42.656;21.170;2023-04-10T05:20:16;25.30;;;17.60;;
37305;SDS011;23193;42.656;21.170;2023-04-10T05:22:42;25.33;;;17.60;;
37305;SDS011;23193;42.656;21.170;2023-04-10T05:25:09;27.33;;;17.58;;
37305;SDS011;23193;42.656;21.170;2023-04-10T05:27:35;25.10;;;18.15;;
37305;SDS011;23193;42.656;21.170;2023-04-10T05:30:01;28.55;;;18.67;;
37305;SDS011;23193;42.656;21.170;2023-04-10T05:32:28;26.73;;;18.35;;
37305;SDS011;23193;42.656;21.170;2023-04-10T05:34:54;27.42;;;17.80;;
37305;SDS011;23193;42.656;21.170;2023-04-10T05:37:20;27.83;;;19.40;;
37305;SDS011;23193;42.656;21.170;2023-04-10T05:39:46;29.25;;;19.35;;
37305;SDS011;23193;42.656;21.170;2023-04-10T05:42:12;30.30;;;20.77;;
37305;SDS011;23193;42.656;21.170;2023-04-10T05:44:38;27.52;;;19.25;;
37305;SDS011;23193;42.656;21.170;2023-04-10T05:47:04;29.98;;;20.80;;
37305;SDS011;23193;42.656;21.170;2023-04-10T05:49:31;23.60;;;16.67;;
37305;SDS011;23193;42.656;21.170;2023-04-10T05:51:57;24.33;;;17.45;;
37305;SDS011;23193;42.656;21.170;2023-04-10T05:54:23;25.83;;;18.27;;
37305;SDS011;23193;42.656;21.170;2023-04-10T05:56:50;25.60;;;18.67;;
37305;SDS011;23193;42.656;21.170;2023-04-10T05:59:16;25.63;;;18.60;;
37305;SDS011;23193;42.656;21.170;2023-04-10T06:01:42;23.52;;;17.13;;
37305;SDS011;23193;42.656;21.170;2023-04-10T06:04:09;27.23;;;19.23;;
37305;SDS011;23193;42.656;21.170;2023-04-10T06:06:35;24.52;;;16.55;;
37305;SDS011;23193;42.656;21.170;2023-04-10T06:09:01;24.58;;;15.02;;
37305;SDS011;23193;42.656;21.170;2023-04-10T06:11:27;28.10;;;17.50;;
37305;SDS011;23193;42.656;21.170;2023-04-10T06:13:53;22.65;;;15.43;;
37305;SDS011;23193;42.656;21.170;2023-04-10T06:16:19;20.48;;;14.93;;
37305;SDS011;23193;42.656;21.170;2023-04-10T06:18:46;24.70;;;16.88;;
37305;SDS011;23193;42.656;21.170;2023-04-10T06:21:12;24.23;;;17.55;;
37305;SDS011;23193;42.656;21.170;2023-04-10T06:23:38;28.58;;;19.83;;
37305;SDS011;23193;42.656;21.170;2023-04-10T06:26:04;30.30;;;21.17;;
37305;SDS011;23193;42.656;21.170;2023-04-10T06:28:31;30.98;;;20.48;;
37305;SDS011;23193;42.656;21.170;2023-04-10T06:30:57;29.67;;;20.77;;
37305;SDS011;23193;42.656;21.170;2023-04-10T06:33:27;34.83;;;21.50;;
37305;SDS011;23193;42.656;21.170;2023-04-10T06:35:53;31.77;;;20.95;;
37305;SDS011;23193;42.656;21.170;2023-04-10T06:38:20;29.58;;;20.10;;
37305;SDS011;23193;42.656;21.170;2023-04-10T06:40:46;21.58;;;16.23;;
37305;SDS011;23193;42.656;21.170;2023-04-10T06:43:12;21.35;;;16.35;;
37305;SDS011;23193;42.656;21.170;2023-04-10T06:45:38;23.35;;;16.55;;
37305;SDS011;23193;42.656;21.170;2023-04-10T06:48:04;24.67;;;18.20;;
37305;SDS011;23193;42.656;21.170;2023-04-10T06:50:31;28.55;;;18.00;;
37305;SDS011;23193;42.656;21.170;2023-04-10T06:52:57;23.10;;;17.42;;
37305;SDS011;23193;42.656;21.170;2023-04-10T06:55:24;29.17;;;18.60;;
37305;SDS011;23193;42.656;21.170;2023-04-10T06:57:50;22.10;;;14.27;;
37305;SDS011;23193;42.656;21.170;2023-04-10T07:00:17;23.60;;;16.98;;
37305;SDS011;23193;42.656;21.170;2023-04-10T07:02:43;29.58;;;17.40;;
37305;SDS011;23193;42.656;21.170;2023-04-10T07:05:10;23.63;;;16.55;;
37305;SDS011;23193;42.656;21.170;2023-04-10T07:07:36;26.20;;;15.90;;
37305;SDS011;23193;42.656;21.170;2023-04-10T07:10:02;18.67;;;14.73;;
37305;SDS011;23193;42.656;21.170;2023-04-10T07:12:28;24.42;;;17.35;;
37305;SDS011;23193;42.656;21.170;2023-04-10T07:14:55;21.17;;;14.27;;
37305;SDS011;23193;42.656;21.170;2023-04-10T07:17:21;17.05;;;13.10;;
37305;SDS011;23193;42.656;21.170;2023-04-10T07:19:47;17.42;;;13.18;;
37305;SDS011;23193;42.656;21.170;2023-04-10T07:22:13;17.45;;;13.40;;
37305;SDS011;23193;42.656;21.170;2023-04-10T07:24:39;17.65;;;11.23;;
37305;SDS011;23193;42.656;21.170;2023-04-10T07:27:05;18.30;;;13.07;;
37305;SDS011;23193;42.656;21.170;2023-04-10T07:29:31;22.15;;;14.80;;
37305;SDS011;23193;42.656;21.170;2023-04-10T07:31:58;19.85;;;13.77;;
37305;SDS011;23193;42.656;21.170;2023-04-10T07:34:24;17.73;;;13.35;;
37305;SDS011;23193;42.656;21.170;2023-04-10T07:36:50;19.27;;;13.88;;
37305;SDS011;23193;42.656;21.170;2023-04-10T07:39:16;21.15;;;13.93;;
37305;SDS011;23193;42.656;21.170;2023-04-10T07:41:43;19.75;;;15.00;;
37305;SDS011;23193;42.656;21.170;2023-04-10T07:44:09;18.10;;;12.75;;
37305;SDS011;23193;42.656;21.170;2023-04-10T07:46:37;18.13;;;12.93;;
37305;SDS011;23193;42.656;21.170;2023-04-10T07:49:03;15.60;;;11.85;;
37305;SDS011;23193;42.656;21.170;2023-04-10T07:51:29;19.08;;;12.80;;
37305;SDS011;23193;42.656;21.170;2023-04-10T07:53:55;18.38;;;12.02;;
37305;SDS011;23193;42.656;21.170;2023-04-10T07:56:21;18.15;;;13.23;;
37305;SDS011;23193;42.656;21.170;2023-04-10T07:58:48;17.50;;;12.13;;
37305;SDS011;23193;42.656;21.170;2023-04-10T08:01:14;15.75;;;11.15;;
37305;SDS011;23193;42.656;21.170;2023-04-10T08:03:41;16.38;;;12.20;;
37305;SDS011;23193;42.656;21.170;2023-04-10T08:06:08;16.02;;;11.45;;
37305;SDS011;23193;42.656;21.170;2023-04-10T08:08:35;19.65;;;12.93;;
37305;SDS011;23193;42.656;21.170;2023-04-10T08:11:01;19.75;;;11.70;;
37305;SDS011;23193;42.656;21.170;2023-04-10T08:13:28;14.60;;;10.80;;
37305;SDS011;23193;42.656;21.170;2023-04-10T08:15:54;14.57;;;11.23;;
37305;SDS011;23193;42.656;21.170;2023-04-10T08:18:20;15.15;;;10.70;;
37305;SDS011;23193;42.656;21.170;2023-04-10T08:20:46;16.88;;;12.35;;
37305;SDS011;23193;42.656;21.170;2023-04-10T08:23:12;18.25;;;11.25;;
37305;SDS011;23193;42.656;21.170;2023-04-10T08:25:38;20.30;;;12.05;;
37305;SDS011;23193;42.656;21.170;2023-04-10T08:28:04;20.40;;;12.52;;
37305;SDS011;23193;42.656;21.170;2023-04-10T08:30:30;16.90;;;11.70;;
37305;SDS011;23193;42.656;21.170;2023-04-10T08:32:56;19.15;;;13.65;;
37305;SDS011;23193;42.656;21.170;2023-04-10T08:35:22;26.50;;;14.23;;
37305;SDS011;23193;42.656;21.170;2023-04-10T08:37:48;18.83;;;12.77;;
37305;SDS011;23193;42.656;21.170;2023-04-10T08:40:15;20.05;;;13.48;;
37305;SDS011;23193;42.656;21.170;2023-04-10T08:42:41;24.17;;;14.27;;
37305;SDS011;23193;42.656;21.170;2023-04-10T08:45:07;21.55;;;11.57;;
37305;SDS011;23193;42.656;21.170;2023-04-10T08:47:34;24.52;;;12.70;;
37305;SDS011;23193;42.656;21.170;2023-04-10T08:50:07;22.73;;;13.27;;
37305;SDS011;23193;42.656;21.170;2023-04-10T08:52:36;19.92;;;14.40;;
37305;SDS011;23193;42.656;21.170;2023-04-10T08:55:04;18.00;;;13.20;;
37305;SDS011;23193;42.656;21.170;2023-04-10T08:57:31;24.58;;;13.15;;
37305;SDS011;23193;42.656;21.170;2023-04-10T08:59:58;17.90;;;13.27;;
37305;SDS011;23193;42.656;21.170;2023-04-10T09:02:24;25.90;;;15.02;;
37305;SDS011;23193;42.656;21.170;2023-04-10T09:04:51;22.67;;;17.67;;
37305;SDS011;23193;42.656;21.170;2023-04-10T09:07:20;26.70;;;20.45;;
37305;SDS011;23193;42.656;21.170;2023-04-10T09:09:47;25.85;;;18.02;;
37305;SDS011;23193;42.656;21.170;2023-04-10T09:12:13;29.52;;;18.25;;
37305;SDS011;23193;42.656;21.170;2023-04-10T09:14:41;24.67;;;17.75;;
37305;SDS011;23193;42.656;21.170;2023-04-10T09:19:36;31.20;;;18.08;;
37305;SDS011;23193;42.656;21.170;2023-04-10T09:22:02;26.75;;;19.48;;
37305;SDS011;23193;42.656;21.170;2023-04-10T09:24:28;27.30;;;19.13;;
37305;SDS011;23193;42.656;21.170;2023-04-10T09:26:55;28.17;;;19.70;;
37305;SDS011;23193;42.656;21.170;2023-04-10T09:29:21;28.88;;;17.33;;
37305;SDS011;23193;42.656;21.170;2023-04-10T09:31:48;37.53;;;22.50;;
37305;SDS011;23193;42.656;21.170;2023-04-10T09:34:16;34.72;;;21.77;;
37305;SDS011;23193;42.656;21.170;2023-04-10T09:36:43;38.15;;;21.42;;
37305;SDS011;23193;42.656;21.170;2023-04-10T09:39:10;30.52;;;21.02;;
37305;SDS011;23193;42.656;21.170;2023-04-10T09:41:49;28.77;;;18.50;;
37305;SDS011;23193;42.656;21.170;2023-04-10T09:44:17;31.83;;;22.75;;
37305;SDS011;23193;42.656;21.170;2023-04-10T09:46:44;31.17;;;21.90;;
37305;SDS011;23193;42.656;21.170;2023-04-10T09:49:10;43.05;;;25.70;;
37305;SDS011;23193;42.656;21.170;2023-04-10T09:51:36;48.40;;;27.52;;
37305;SDS011;23193;42.656;21.170;2023-04-10T09:54:03;33.53;;;23.02;;
37305;SDS011;23193;42.656;21.170;2023-04-10T09:56:30;56.03;;;28.88;;
37305;SDS011;23193;42.656;21.170;2023-04-10T09:59:01;52.20;;;27.60;;
37305;SDS011;23193;42.656;21.170;2023-04-10T10:01:28;38.72;;;24.17;;
37305;SDS011;23193;42.656;21.170;2023-04-10T10:04:00;42.42;;;26.75;;
37305;SDS011;23193;42.656;21.170;2023-04-10T10:06:28;38.58;;;25.52;;
37305;SDS011;23193;42.656;21.170;2023-04-10T10:08:57;46.10;;;27.67;;
37305;SDS011;23193;42.656;21.170;2023-04-10T10:11:26;43.45;;;26.27;;
37305;SDS011;23193;42.656;21.170;2023-04-10T10:13:53;43.92;;;24.60;;
37305;SDS011;23193;42.656;21.170;2023-04-10T10:18:50;37.53;;;25.33;;
37305;SDS011;23193;42.656;21.170;2023-04-10T10:21:19;39.60;;;24.40;;
37305;SDS011;23193;42.656;21.170;2023-04-10T10:23:46;28.20;;;20.98;;
37305;SDS011;23193;42.656;21.170;2023-04-10T10:26:17;42.42;;;23.75;;
37305;SDS011;23193;42.656;21.170;2023-04-10T10:28:45;40.80;;;24.38;;
37305;SDS011;23193;42.656;21.170;2023-04-10T10:31:12;32.65;;;22.95;;
37305;SDS011;23193;42.656;21.170;2023-04-10T10:33:38;34.97;;;23.38;;
37305;SDS011;23193;42.656;21.170;2023-04-10T10:36:05;34.70;;;22.92;;
37305;SDS011;23193;42.656;21.170;2023-04-10T10:38:31;39.10;;;23.85;;
37305;SDS011;23193;42.656;21.170;2023-04-10T10:46:11;31.10;;;21.10;;
37305;SDS011;23193;42.656;21.170;2023-04-10T10:48:39;34.08;;;21.83;;
37305;SDS011;23193;42.656;21.170;2023-04-10T10:51:05;31.77;;;22.00;;
37305;SDS011;23193;42.656;21.170;2023-04-10T10:53:41;37.10;;;25.40;;
37305;SDS011;23193;42.656;21.170;2023-04-10T11:01:12;38.03;;;27.55;;
37305;SDS011;23193;42.656;21.170;2023-04-10T11:03:38;44.40;;;30.20;;
37305;SDS011;23193;42.656;21.170;2023-04-10T11:06:08;38.95;;;26.23;;
37305;SDS011;23193;42.656;21.170;2023-04-10T11:08:43;42.45;;;28.25;;
37305;SDS011;23193;42.656;21.170;2023-04-10T11:11:19;35.17;;;19.73;;
37305;SDS011;23193;42.656;21.170;2023-04-10T11:16:16;31.95;;;21.73;;
37305;SDS011;23193;42.656;21.170;2023-04-10T11:29:01;41.30;;;25.13;;
37305;SDS011;23193;42.656;21.170;2023-04-10T11:31:27;35.88;;;24.15;;
37305;SDS011;23193;42.656;21.170;2023-04-10T11:36:23;34.13;;;23.02;;
37305;SDS011;23193;42.656;21.170;2023-04-10T11:38:59;42.08;;;27.00;;
37305;SDS011;23193;42.656;21.170;2023-04-10T11:41:44;41.42;;;28.17;;
37305;SDS011;23193;42.656;21.170;2023-04-10T11:44:14;41.92;;;27.67;;
37305;SDS011;23193;42.656;21.170;2023-04-10T11:46:41;37.42;;;22.88;;
37305;SDS011;23193;42.656;21.170;2023-04-10T11:49:08;37.25;;;26.38;;
37305;SDS011;23193;42.656;21.170;2023-04-10T11:51:35;43.97;;;30.75;;
37305;SDS011;23193;42.656;21.170;2023-04-10T11:54:09;34.22;;;24.60;;
37305;SDS011;23193;42.656;21.170;2023-04-10T11:56:36;40.15;;;27.38;;
37305;SDS011;23193;42.656;21.170;2023-04-10T11:59:03;40.95;;;27.90;;
37305;SDS011;23193;42.656;21.170;2023-04-10T12:01:35;38.90;;;24.50;;
37305;SDS011;23193;42.656;21.170;2023-04-10T12:04:01;35.42;;;23.55;;
37305;SDS011;23193;42.656;21.170;2023-04-10T12:06:28;22.48;;;14.65;;
37305;SDS011;23193;42.656;21.170;2023-04-10T12:08:55;24.67;;;14.80;;
37305;SDS011;23193;42.656;21.170;2023-04-10T12:11:25;20.73;;;11.27;;
37305;SDS011;23193;42.656;21.170;2023-04-10T12:13:53;25.50;;;15.75;;
37305;SDS011;23193;42.656;21.170;2023-04-10T12:16:20;26.60;;;15.35;;
37305;SDS011;23193;42.656;21.170;2023-04-10T12:18:47;28.10;;;17.17;;
37305;SDS011;23193;42.656;21.170;2023-04-10T12:21:14;38.10;;;21.65;;
37305;SDS011;23193;42.656;21.170;2023-04-10T12:23:40;39.00;;;21.13;;
37305;SDS011;23193;42.656;21.170;2023-04-10T12:26:11;36.20;;;23.38;;
37305;SDS011;23193;42.656;21.170;2023-04-10T12:28:38;38.92;;;23.23;;
37305;SDS011;23193;42.656;21.170;2023-04-10T12:31:05;38.88;;;23.92;;
37305;SDS011;23193;42.656;21.170;2023-04-10T12:33:31;29.00;;;18.40;;
37305;SDS011;23193;42.656;21.170;2023-04-10T12:35:57;25.13;;;15.85;;
37305;SDS011;23193;42.656;21.170;2023-04-10T12:38:36;28.40;;;17.35;;
37305;SDS011;23193;42.656;21.170;2023-04-10T12:41:02;24.20;;;17.50;;
37305;SDS011;23193;42.656;21.170;2023-04-10T12:43:29;22.90;;;16.98;;
37305;SDS011;23193;42.656;21.170;2023-04-10T12:45:56;21.48;;;14.38;;
37305;SDS011;23193;42.656;21.170;2023-04-10T12:48:22;12.38;;;9.60;;
37305;SDS011;23193;42.656;21.170;2023-04-10T12:50:48;16.80;;;9.88;;
37305;SDS011;23193;42.656;21.170;2023-04-10T12:53:14;19.55;;;12.23;;
37305;SDS011;23193;42.656;21.170;2023-04-10T12:55:40;14.80;;;9.90;;
37305;SDS011;23193;42.656;21.170;2023-04-10T12:58:16;24.27;;;13.10;;
37305;SDS011;23193;42.656;21.170;2023-04-10T13:00:44;20.67;;;10.27;;
37305;SDS011;23193;42.656;21.170;2023-04-10T13:03:10;24.85;;;15.02;;
37305;SDS011;23193;42.656;21.170;2023-04-10T13:05:36;29.48;;;9.82;;
37305;SDS011;23193;42.656;21.170;2023-04-10T13:08:03;17.15;;;10.10;;
37305;SDS011;23193;42.656;21.170;2023-04-10T13:10:29;20.35;;;13.13;;
37305;SDS011;23193;42.656;21.170;2023-04-10T13:12:55;27.60;;;16.63;;
37305;SDS011;23193;42.656;21.170;2023-04-10T13:15:21;26.65;;;17.38;;
37305;SDS011;23193;42.656;21.170;2023-04-10T13:17:48;18.92;;;12.15;;
37305;SDS011;23193;42.656;21.170;2023-04-10T13:20:14;15.85;;;12.07;;
37305;SDS011;23193;42.656;21.170;2023-04-10T13:22:40;16.73;;;11.45;;
37305;SDS011;23193;42.656;21.170;2023-04-10T13:25:07;18.85;;;13.10;;
37305;SDS011;23193;42.656;21.170;2023-04-10T13:27:33;22.08;;;13.30;;
37305;SDS011;23193;42.656;21.170;2023-04-10T13:29:59;21.20;;;12.88;;
37305;SDS011;23193;42.656;21.170;2023-04-10T13:32:25;23.15;;;13.45;;
37305;SDS011;23193;42.656;21.170;2023-04-10T13:34:51;16.23;;;11.00;;
37305;SDS011;23193;42.656;21.170;2023-04-10T13:37:18;17.40;;;10.88;;
37305;SDS011;23193;42.656;21.170;2023-04-10T13:39:45;11.70;;;7.88;;
37305;SDS011;23193;42.656;21.170;2023-04-10T13:42:12;16.77;;;10.70;;
37305;SDS011;23193;42.656;21.170;2023-04-10T13:44:38;14.38;;;9.88;;
37305;SDS011;23193;42.656;21.170;2023-04-10T13:47:04;19.15;;;11.30;;
37305;SDS011;23193;42.656;21.170;2023-04-10T13:49:30;17.30;;;10.93;;
37305;SDS011;23193;42.656;21.170;2023-04-10T13:51:56;21.33;;;11.95;;
37305;SDS011;23193;42.656;21.170;2023-04-10T13:54:22;31.55;;;18.48;;
37305;SDS011;23193;42.656;21.170;2023-04-10T13:56:48;27.83;;;17.13;;
37305;SDS011;23193;42.656;21.170;2023-04-10T13:59:15;24.48;;;14.57;;
37305;SDS011;23193;42.656;21.170;2023-04-10T14:01:41;19.05;;;12.18;;
37305;SDS011;23193;42.656;21.170;2023-04-10T14:04:07;18.90;;;11.73;;
37305;SDS011;23193;42.656;21.170;2023-04-10T14:06:33;21.02;;;11.88;;
37305;SDS011;23193;42.656;21.170;2023-04-10T14:08:59;24.13;;;14.80;;
37305;SDS011;23193;42.656;21.170;2023-04-10T14:11:26;24.08;;;14.82;;
37305;SDS011;23193;42.656;21.170;2023-04-10T14:13:52;37.97;;;22.60;;
37305;SDS011;23193;42.656;21.170;2023-04-10T14:16:18;24.33;;;15.48;;
37305;SDS011;23193;42.656;21.170;2023-04-10T14:18:44;29.67;;;19.05;;
37305;SDS011;23193;42.656;21.170;2023-04-10T14:21:10;29.92;;;19.88;;
37305;SDS011;23193;42.656;21.170;2023-04-10T14:23:37;24.58;;;14.60;;
37305;SDS011;23193;42.656;21.170;2023-04-10T14:26:03;23.65;;;13.68;;
37305;SDS011;23193;42.656;21.170;2023-04-10T14:28:30;22.75;;;12.48;;
37305;SDS011;23193;42.656;21.170;2023-04-10T14:30:56;17.83;;;11.55;;
37305;SDS011;23193;42.656;21.170;2023-04-10T14:33:22;21.52;;;12.00;;
37305;SDS011;23193;42.656;21.170;2023-04-10T14:35:48;20.08;;;12.57;;
37305;SDS011;23193;42.656;21.170;2023-04-10T14:38:14;18.50;;;10.02;;
37305;SDS011;23193;42.656;21.170;2023-04-10T14:40:41;20.88;;;11.32;;
37305;SDS011;23193;42.656;21.170;2023-04-10T14:43:09;14.73;;;10.48;;
37305;SDS011;23193;42.656;21.170;2023-04-10T14:45:35;20.40;;;12.88;;
37305;SDS011;23193;42.656;21.170;2023-04-10T14:48:02;22.10;;;13.43;;
37305;SDS011;23193;42.656;21.170;2023-04-10T14:50:30;30.73;;;17.40;;
37305;SDS011;23193;42.656;21.170;2023-04-10T14:52:56;27.98;;;16.33;;
37305;SDS011;23193;42.656;21.170;2023-04-10T14:55:24;34.75;;;18.02;;